Keiho Maru — JJ4010 — position and weather

sailwx.info

Track history (hours):
 
Tides and Currents Weather Stations Pressure Air Temp Water Temp Dewpoint Dewpoint Depression Visibility Wind Speed Wind Dir Waves Ship Positions

Keiho Maru

Last reported at 2017-Sep-21 18:31 UTC. Time now 2017-Sep-22 04:16 UTC.
Position N 34°41' E 135°12'.

Length 38 m; draft 3.6 m.

Type: Tug. MMSI: 431401501.

Date/timePositionNaut miles runAvg speedWind from/ knotsBaromVisibWave heightAir tempDewpointWater temp
2017-Sep-21 18:31N 34°41' E 135°12'0 0.0
2017-Sep-21 18:30N 34°41' E 135°12'3 6.1
2017-Sep-21 18:00N 34°41' E 135°16'1 1.2
2017-Sep-21 17:30N 34°41' E 135°17'0 0.0
2017-Sep-21 17:00N 34°41' E 135°17'0 0.0
2017-Sep-21 16:30N 34°41' E 135°17'0 0.0
2017-Sep-21 16:00N 34°41' E 135°17'0 0.0
2017-Sep-21 15:30N 34°41' E 135°17'0 0.0
2017-Sep-21 15:00N 34°41' E 135°17'0 0.0
2017-Sep-21 14:30N 34°41' E 135°17'0 0.0
2017-Sep-21 14:00N 34°41' E 135°17'0 0.0
2017-Sep-21 13:30N 34°41' E 135°17'1 1.5
2017-Sep-21 13:00N 34°41' E 135°16'1 1.5
2017-Sep-21 12:30N 34°41' E 135°17'0 0.2
2017-Sep-21 12:00N 34°41' E 135°17'0 0.1
2017-Sep-21 11:30N 34°41' E 135°17'0 0.1
2017-Sep-21 11:00N 34°41' E 135°17'0 0.1
2017-Sep-21 10:30N 34°41' E 135°17'0 0.6
2017-Sep-21 10:00N 34°41' E 135°17'3 6.3
2017-Sep-21 09:30N 34°40' E 135°13'0 0.0
2017-Sep-21 09:00N 34°40' E 135°13'1 1.9
2017-Sep-21 08:30N 34°40' E 135°14'0 0.5
2017-Sep-21 08:00N 34°40' E 135°14'1 2.4
2017-Sep-21 07:30N 34°39' E 135°14'2 4.1
2017-Sep-21 07:00N 34°41' E 135°12'0 0.0
2017-Sep-21 06:30N 34°41' E 135°12'0 0.0
2017-Sep-21 06:00N 34°41' E 135°12'0 0.0
2017-Sep-21 05:30N 34°41' E 135°12'0 0.0
2017-Sep-21 05:00N 34°41' E 135°12'0 0.0
2017-Sep-21 04:30N 34°41' E 135°12'2 4.7
2017-Sep-21 04:00N 34°41' E 135°15'1 1.3
2017-Sep-21 03:30N 34°41' E 135°16'1 1.7
2017-Sep-21 03:00N 34°40' E 135°15'1 2.4
2017-Sep-21 02:30N 34°39' E 135°15'0 0.0
2017-Sep-21 02:00N 34°39' E 135°15'0 0.0
2017-Sep-21 01:30N 34°39' E 135°15'0 0.0
2017-Sep-21 01:00N 34°39' E 135°15'0 0.0
2017-Sep-21 00:30N 34°39' E 135°15'0 0.0
2017-Sep-21 00:00N 34°39' E 135°15'0 0.0
2017-Sep-20 23:30N 34°39' E 135°15'2 3.8
2017-Sep-20 23:00N 34°41' E 135°14'1 1.7
2017-Sep-20 22:30N 34°41' E 135°15'1 2.8
2017-Sep-20 22:00N 34°40' E 135°15'2 3.2
2017-Sep-20 21:30N 34°41' E 135°14'1 2.5
2017-Sep-20 21:00N 34°41' E 135°12'0 0.0
2017-Sep-20 20:30N 34°41' E 135°12'0 0.0
2017-Sep-20 13:30N 34°41' E 135°12'3 5.1
2017-Sep-20 13:00N 34°41' E 135°15'0 0.2
2017-Sep-20 12:30N 34°41' E 135°15'2 3.4
2017-Sep-20 12:00N 34°40' E 135°13'0 0.0
2017-Sep-20 11:30N 34°40' E 135°13'0 0.0
2017-Sep-20 11:00N 34°40' E 135°13'0 0.0
2017-Sep-20 10:30N 34°40' E 135°13'0 0.0
2017-Sep-20 10:00N 34°40' E 135°13'0 0.0
2017-Sep-20 09:30N 34°40' E 135°13'0 0.0
2017-Sep-20 09:00N 34°40' E 135°13'0 0.0
2017-Sep-20 08:29N 34°40' E 135°13'0 0.0
2017-Sep-20 08:00N 34°40' E 135°13'2 3.7
2017-Sep-20 07:30N 34°41' E 135°15'1 1.7
2017-Sep-20 07:00N 34°40' E 135°15'1 2.4
2017-Sep-20 06:30N 34°40' E 135°14'2 3.8
2017-Sep-20 06:00N 34°39' E 135°16'4 7.1
2017-Sep-20 05:30N 34°41' E 135°12'0 0.0
2017-Sep-20 05:00N 34°41' E 135°12'0 0.0
2017-Sep-20 04:30N 34°41' E 135°12'0 0.0
2017-Sep-20 04:00N 34°41' E 135°12'0 0.0
2017-Sep-20 03:30N 34°41' E 135°12'0 0.0
2017-Sep-20 03:00N 34°41' E 135°12'0 0.0
2017-Sep-20 02:30N 34°41' E 135°12'0 0.0
2017-Sep-20 02:00N 34°41' E 135°12'0 0.0
2017-Sep-20 01:30N 34°41' E 135°12'0 0.0
2017-Sep-20 01:00N 34°41' E 135°12'0 0.0
2017-Sep-20 00:30N 34°41' E 135°12'0 0.0
2017-Sep-20 00:00N 34°41' E 135°12'1 2.9
2017-Sep-19 23:30N 34°41' E 135°14'3 5.7
2017-Sep-19 23:00N 34°42' E 135°17'0 0.9
2017-Sep-19 22:30N 34°42' E 135°17'2 4.6
2017-Sep-19 22:00N 34°41' E 135°15'1 2.0
2017-Sep-19 21:30N 34°42' E 135°16'3 6.3
2017-Sep-19 21:00N 34°41' E 135°12'0 0.2
2017-Sep-19 20:30N 34°41' E 135°12'0 0.0
2017-Sep-19 08:38N 34°41' E 135°12'0 0.0
2017-Sep-19 08:31N 34°41' E 135°12'3 5.1
2017-Sep-19 08:01N 34°41' E 135°15'0 0.5
2017-Sep-19 07:30N 34°41' E 135°15'1 1.5
2017-Sep-19 07:00N 34°40' E 135°16'1 1.7
2017-Sep-19 06:30N 34°40' E 135°15'2 4.2
2017-Sep-19 06:01N 34°41' E 135°12'0 0.0
2017-Sep-19 05:30N 34°41' E 135°12'0 0.0
2017-Sep-19 05:01N 34°41' E 135°12'0 0.0
2017-Sep-19 04:30N 34°41' E 135°12'0 0.0
2017-Sep-19 04:01N 34°41' E 135°12'0 0.0
2017-Sep-19 03:31N 34°41' E 135°12'0 0.0
2017-Sep-19 03:01N 34°41' E 135°12'0 0.0
2017-Sep-19 02:30N 34°41' E 135°12'0 0.0
2017-Sep-19 02:00N 34°41' E 135°12'0 0.0
2017-Sep-19 01:31N 34°41' E 135°12'0 0.0
2017-Sep-19 01:01N 34°41' E 135°12'1 1.8
2017-Sep-19 00:31N 34°40' E 135°11'1 1.1
2017-Sep-19 00:01N 34°40' E 135°11'2 4.7
2017-Sep-18 23:30N 34°41' E 135°14'3 5.3
2017-Sep-18 23:00N 34°41' E 135°17'1 2.4
2017-Sep-18 22:30N 34°40' E 135°18'1 2.0
2017-Sep-18 22:00N 34°41' E 135°17'4 8.5
2017-Sep-18 21:30N 34°41' E 135°12'0 0.1
2017-Sep-18 21:00N 34°41' E 135°12'0 0.0
2017-Sep-17 21:18N 34°41' E 135°12'1 2.1
2017-Sep-17 21:00N 34°41' E 135°13'1 1.2
2017-Sep-17 20:30N 34°42' E 135°13'0 0.0
2017-Sep-17 20:00N 34°42' E 135°13'0 0.0
2017-Sep-17 19:30N 34°42' E 135°13'0 0.0
2017-Sep-17 19:00N 34°42' E 135°13'0 0.0
2017-Sep-17 18:30N 34°42' E 135°13'0 0.0
2017-Sep-17 18:00N 34°42' E 135°13'0 0.0
2017-Sep-17 17:30N 34°42' E 135°13'0 0.0
2017-Sep-17 17:00N 34°42' E 135°13'0 0.0
2017-Sep-17 16:30N 34°42' E 135°13'0 0.0
2017-Sep-17 16:00N 34°42' E 135°13'0 0.0
2017-Sep-17 15:30N 34°42' E 135°13'0 0.0
2017-Sep-17 15:00N 34°42' E 135°13'0 0.0
2017-Sep-17 14:30N 34°42' E 135°13'0 0.0
2017-Sep-17 14:00N 34°42' E 135°13'0 0.0
2017-Sep-17 13:30N 34°42' E 135°13'0 0.0
2017-Sep-17 13:00N 34°42' E 135°13'0 0.0
2017-Sep-17 12:30N 34°42' E 135°13'0 0.0
2017-Sep-17 12:00N 34°42' E 135°13'0 0.0
2017-Sep-17 11:30N 34°42' E 135°13'0 0.0
2017-Sep-17 11:00N 34°42' E 135°13'0 0.0
2017-Sep-17 10:30N 34°42' E 135°13'0 0.0
2017-Sep-17 10:00N 34°42' E 135°13'0 0.0
2017-Sep-17 09:30N 34°42' E 135°13'0 0.0
2017-Sep-17 09:00N 34°42' E 135°13'0 0.0
2017-Sep-17 08:30N 34°42' E 135°13'0 0.0
2017-Sep-17 08:00N 34°42' E 135°13'0 0.0
2017-Sep-17 07:30N 34°42' E 135°13'0 0.0
2017-Sep-17 07:00N 34°42' E 135°13'0 0.0
2017-Sep-17 06:30N 34°42' E 135°13'0 0.0
2017-Sep-17 06:00N 34°42' E 135°13'0 0.0
2017-Sep-17 05:30N 34°42' E 135°13'0 0.0
2017-Sep-17 05:00N 34°42' E 135°13'0 0.0
2017-Sep-17 04:30N 34°42' E 135°13'0 0.0
2017-Sep-17 04:00N 34°42' E 135°13'0 0.0
2017-Sep-17 03:30N 34°42' E 135°13'0 0.0
2017-Sep-17 03:00N 34°42' E 135°13'0 0.0
2017-Sep-17 02:30N 34°42' E 135°13'0 0.0
2017-Sep-17 02:00N 34°42' E 135°13'0 0.0
2017-Sep-17 01:30N 34°42' E 135°13'0 0.0
2017-Sep-17 01:00N 34°42' E 135°13'0 0.0
2017-Sep-17 00:30N 34°42' E 135°13'0 0.0
2017-Sep-17 00:00N 34°42' E 135°13'1 2.3
2017-Sep-16 23:30N 34°41' E 135°12'  
2017-Sep-13 23:21N 34°41' E 135°12'1 2.3
2017-Sep-13 23:00N 34°41' E 135°13'2 4.1
2017-Sep-13 22:30N 34°41' E 135°15'2 4.0
2017-Sep-13 22:00N 34°39' E 135°16'1 1.8
2017-Sep-13 21:30N 34°39' E 135°15'0 0.0
2017-Sep-13 21:00N 34°39' E 135°15'0 0.0
2017-Sep-13 20:30N 34°39' E 135°15'0 0.0
2017-Sep-13 20:00N 34°39' E 135°15'0 0.0
2017-Sep-13 19:30N 34°39' E 135°15'0 0.0
2017-Sep-13 19:00N 34°39' E 135°15'0 0.0
2017-Sep-13 18:30N 34°39' E 135°15'0 0.0
2017-Sep-13 18:00N 34°39' E 135°15'0 0.0
2017-Sep-13 17:30N 34°39' E 135°15'1 2.1
2017-Sep-13 17:00N 34°40' E 135°14'0 0.4
2017-Sep-13 16:30N 34°40' E 135°14'2 3.6
2017-Sep-13 15:59N 34°41' E 135°17'0 0.0
2017-Sep-13 15:30N 34°41' E 135°17'0 0.0
2017-Sep-13 15:00N 34°41' E 135°17'0 0.0
2017-Sep-13 14:30N 34°41' E 135°17'0 0.0
2017-Sep-13 14:00N 34°41' E 135°17'0 0.0
2017-Sep-13 13:30N 34°41' E 135°17'0 0.0
2017-Sep-13 13:00N 34°41' E 135°17'0 0.0
2017-Sep-13 12:30N 34°41' E 135°17'0 0.0
2017-Sep-13 12:00N 34°41' E 135°17'0 0.0
2017-Sep-13 11:30N 34°41' E 135°17'1 1.5
2017-Sep-13 11:00N 34°41' E 135°17'0 0.6
2017-Sep-13 10:30N 34°41' E 135°17'3 6.3
2017-Sep-13 10:00N 34°40' E 135°13'0 0.1
2017-Sep-13 09:30N 34°40' E 135°13'1 2.9
2017-Sep-13 09:00N 34°39' E 135°15'0 0.4
2017-Sep-13 08:30N 34°39' E 135°15'1 2.6
2017-Sep-13 08:00N 34°39' E 135°16'2 4.1
2017-Sep-13 07:30N 34°41' E 135°15'1 1.6
2017-Sep-13 07:00N 34°41' E 135°14'0 0.1
2017-Sep-13 06:30N 34°41' E 135°14'0 0.0
2017-Sep-13 06:00N 34°41' E 135°14'0 0.0
2017-Sep-13 05:30N 34°41' E 135°14'0 0.1
2017-Sep-13 05:00N 34°41' E 135°14'0 0.1
2017-Sep-13 04:30N 34°41' E 135°14'0 0.0
2017-Sep-13 04:00N 34°41' E 135°14'0 0.0
2017-Sep-13 03:30N 34°41' E 135°14'0 0.0
2017-Sep-13 03:00N 34°41' E 135°14'1 1.6
2017-Sep-13 02:30N 34°42' E 135°15'0 0.1
2017-Sep-13 02:00N 34°42' E 135°15'1 2.7
2017-Sep-13 01:30N 34°41' E 135°15'2 3.1
2017-Sep-13 01:00N 34°39' E 135°15'0 0.8
2017-Sep-13 00:30N 34°39' E 135°15'0 0.0
2017-Sep-13 00:00N 34°39' E 135°15'3 5.4
2017-Sep-12 23:30N 34°41' E 135°13'4 7.5
2017-Sep-12 23:00N 34°41' E 135°17'0 0.6
2017-Sep-12 22:30N 34°41' E 135°18'1 1.5
2017-Sep-12 22:00N 34°40' E 135°18'4 7.2
2017-Sep-12 21:30N 34°41' E 135°14'1 2.7
2017-Sep-12 21:00N 34°41' E 135°12'0 0.0
2017-Sep-12 06:55N 34°41' E 135°12'0 0.0
2017-Sep-12 06:30N 34°41' E 135°12'0 0.0
2017-Sep-12 06:01N 34°41' E 135°12'0 0.0
2017-Sep-12 05:31N 34°41' E 135°12'0 0.0
2017-Sep-12 05:00N 34°41' E 135°12'0 0.0
2017-Sep-12 04:30N 34°41' E 135°12'0 0.0
2017-Sep-12 04:00N 34°41' E 135°12'0 0.0
2017-Sep-12 03:30N 34°41' E 135°12'0 0.0
2017-Sep-12 03:00N 34°41' E 135°12'0 0.0
2017-Sep-12 02:31N 34°41' E 135°12'0 0.0
2017-Sep-12 02:00N 34°41' E 135°12'0 0.0
2017-Sep-12 01:31N 34°41' E 135°12'0 0.0
2017-Sep-12 01:00N 34°41' E 135°12'0 0.0
2017-Sep-12 00:30N 34°41' E 135°12'1 2.2
2017-Sep-12 00:00N 34°40' E 135°13'1 2.4
2017-Sep-11 23:30N 34°39' E 135°15'1 1.1
2017-Sep-11 23:00N 34°39' E 135°15'1 2.0
2017-Sep-11 22:30N 34°39' E 135°16'2 3.4
2017-Sep-11 22:01N 34°40' E 135°15'2 4.5
2017-Sep-11 21:30N 34°41' E 135°12'0 0.0
2017-Sep-11 21:01N 34°41' E 135°12'  
Track history (hours):
 
Tides and Currents Weather Stations Pressure Air Temp Water Temp Dewpoint Dewpoint Depression Visibility Wind Speed Wind Dir Waves Ship Positions

Keiho Maru

Last reported at 2017-Sep-21 18:31 UTC. Time now 2017-Sep-22 04:16 UTC.
Position N 34°41' E 135°12'.

Length 38 m; draft 3.6 m.

Type: Tug. MMSI: 431401501.

Date/timePositionNaut miles runAvg speedWind from/ knotsBaromVisibWave heightAir tempDewpointWater temp
2017-Sep-21 18:31N 34°41' E 135°12'0 0.0
2017-Sep-21 18:30N 34°41' E 135°12'3 6.1
2017-Sep-21 18:00N 34°41' E 135°16'1 1.2
2017-Sep-21 17:30N 34°41' E 135°17'0 0.0
2017-Sep-21 17:00N 34°41' E 135°17'0 0.0
2017-Sep-21 16:30N 34°41' E 135°17'0 0.0
2017-Sep-21 16:00N 34°41' E 135°17'0 0.0
2017-Sep-21 15:30N 34°41' E 135°17'0 0.0
2017-Sep-21 15:00N 34°41' E 135°17'0 0.0
2017-Sep-21 14:30N 34°41' E 135°17'0 0.0
2017-Sep-21 14:00N 34°41' E 135°17'0 0.0
2017-Sep-21 13:30N 34°41' E 135°17'1 1.5
2017-Sep-21 13:00N 34°41' E 135°16'1 1.5
2017-Sep-21 12:30N 34°41' E 135°17'0 0.2
2017-Sep-21 12:00N 34°41' E 135°17'0 0.1
2017-Sep-21 11:30N 34°41' E 135°17'0 0.1
2017-Sep-21 11:00N 34°41' E 135°17'0 0.1
2017-Sep-21 10:30N 34°41' E 135°17'0 0.6
2017-Sep-21 10:00N 34°41' E 135°17'3 6.3
2017-Sep-21 09:30N 34°40' E 135°13'0 0.0
2017-Sep-21 09:00N 34°40' E 135°13'1 1.9
2017-Sep-21 08:30N 34°40' E 135°14'0 0.5
2017-Sep-21 08:00N 34°40' E 135°14'1 2.4
2017-Sep-21 07:30N 34°39' E 135°14'2 4.1
2017-Sep-21 07:00N 34°41' E 135°12'0 0.0
2017-Sep-21 06:30N 34°41' E 135°12'0 0.0
2017-Sep-21 06:00N 34°41' E 135°12'0 0.0
2017-Sep-21 05:30N 34°41' E 135°12'0 0.0
2017-Sep-21 05:00N 34°41' E 135°12'0 0.0
2017-Sep-21 04:30N 34°41' E 135°12'2 4.7
2017-Sep-21 04:00N 34°41' E 135°15'1 1.3
2017-Sep-21 03:30N 34°41' E 135°16'1 1.7
2017-Sep-21 03:00N 34°40' E 135°15'1 2.4
2017-Sep-21 02:30N 34°39' E 135°15'0 0.0
2017-Sep-21 02:00N 34°39' E 135°15'0 0.0
2017-Sep-21 01:30N 34°39' E 135°15'0 0.0
2017-Sep-21 01:00N 34°39' E 135°15'0 0.0
2017-Sep-21 00:30N 34°39' E 135°15'0 0.0
2017-Sep-21 00:00N 34°39' E 135°15'0 0.0
2017-Sep-20 23:30N 34°39' E 135°15'2 3.8
2017-Sep-20 23:00N 34°41' E 135°14'1 1.7
2017-Sep-20 22:30N 34°41' E 135°15'1 2.8
2017-Sep-20 22:00N 34°40' E 135°15'2 3.2
2017-Sep-20 21:30N 34°41' E 135°14'1 2.5
2017-Sep-20 21:00N 34°41' E 135°12'0 0.0
2017-Sep-20 20:30N 34°41' E 135°12'0 0.0
2017-Sep-20 13:30N 34°41' E 135°12'3 5.1
2017-Sep-20 13:00N 34°41' E 135°15'0 0.2
2017-Sep-20 12:30N 34°41' E 135°15'2 3.4
2017-Sep-20 12:00N 34°40' E 135°13'0 0.0
2017-Sep-20 11:30N 34°40' E 135°13'0 0.0
2017-Sep-20 11:00N 34°40' E 135°13'0 0.0
2017-Sep-20 10:30N 34°40' E 135°13'0 0.0
2017-Sep-20 10:00N 34°40' E 135°13'0 0.0
2017-Sep-20 09:30N 34°40' E 135°13'0 0.0
2017-Sep-20 09:00N 34°40' E 135°13'0 0.0
2017-Sep-20 08:29N 34°40' E 135°13'0 0.0
2017-Sep-20 08:00N 34°40' E 135°13'2 3.7
2017-Sep-20 07:30N 34°41' E 135°15'1 1.7
2017-Sep-20 07:00N 34°40' E 135°15'1 2.4
2017-Sep-20 06:30N 34°40' E 135°14'2 3.8
2017-Sep-20 06:00N 34°39' E 135°16'4 7.1
2017-Sep-20 05:30N 34°41' E 135°12'0 0.0
2017-Sep-20 05:00N 34°41' E 135°12'0 0.0
2017-Sep-20 04:30N 34°41' E 135°12'0 0.0
2017-Sep-20 04:00N 34°41' E 135°12'0 0.0
2017-Sep-20 03:30N 34°41' E 135°12'0 0.0
2017-Sep-20 03:00N 34°41' E 135°12'0 0.0
2017-Sep-20 02:30N 34°41' E 135°12'0 0.0
2017-Sep-20 02:00N 34°41' E 135°12'0 0.0
2017-Sep-20 01:30N 34°41' E 135°12'0 0.0
2017-Sep-20 01:00N 34°41' E 135°12'0 0.0
2017-Sep-20 00:30N 34°41' E 135°12'0 0.0
2017-Sep-20 00:00N 34°41' E 135°12'1 2.9
2017-Sep-19 23:30N 34°41' E 135°14'3 5.7
2017-Sep-19 23:00N 34°42' E 135°17'0 0.9
2017-Sep-19 22:30N 34°42' E 135°17'2 4.6
2017-Sep-19 22:00N 34°41' E 135°15'1 2.0
2017-Sep-19 21:30N 34°42' E 135°16'3 6.3
2017-Sep-19 21:00N 34°41' E 135°12'0 0.2
2017-Sep-19 20:30N 34°41' E 135°12'0 0.0
2017-Sep-19 08:38N 34°41' E 135°12'0 0.0
2017-Sep-19 08:31N 34°41' E 135°12'3 5.1
2017-Sep-19 08:01N 34°41' E 135°15'0 0.5
2017-Sep-19 07:30N 34°41' E 135°15'1 1.5
2017-Sep-19 07:00N 34°40' E 135°16'1 1.7
2017-Sep-19 06:30N 34°40' E 135°15'2 4.2
2017-Sep-19 06:01N 34°41' E 135°12'0 0.0
2017-Sep-19 05:30N 34°41' E 135°12'0 0.0
2017-Sep-19 05:01N 34°41' E 135°12'0 0.0
2017-Sep-19 04:30N 34°41' E 135°12'0 0.0
2017-Sep-19 04:01N 34°41' E 135°12'0 0.0
2017-Sep-19 03:31N 34°41' E 135°12'0 0.0
2017-Sep-19 03:01N 34°41' E 135°12'0 0.0
2017-Sep-19 02:30N 34°41' E 135°12'0 0.0
2017-Sep-19 02:00N 34°41' E 135°12'0 0.0
2017-Sep-19 01:31N 34°41' E 135°12'0 0.0
2017-Sep-19 01:01N 34°41' E 135°12'1 1.8
2017-Sep-19 00:31N 34°40' E 135°11'1 1.1
2017-Sep-19 00:01N 34°40' E 135°11'2 4.7
2017-Sep-18 23:30N 34°41' E 135°14'3 5.3
2017-Sep-18 23:00N 34°41' E 135°17'1 2.4
2017-Sep-18 22:30N 34°40' E 135°18'1 2.0
2017-Sep-18 22:00N 34°41' E 135°17'4 8.5
2017-Sep-18 21:30N 34°41' E 135°12'0 0.1
2017-Sep-18 21:00N 34°41' E 135°12'0 0.0
2017-Sep-17 21:18N 34°41' E 135°12'1 2.1
2017-Sep-17 21:00N 34°41' E 135°13'1 1.2
2017-Sep-17 20:30N 34°42' E 135°13'0 0.0
2017-Sep-17 20:00N 34°42' E 135°13'0 0.0
2017-Sep-17 19:30N 34°42' E 135°13'0 0.0
2017-Sep-17 19:00N 34°42' E 135°13'0 0.0
2017-Sep-17 18:30N 34°42' E 135°13'0 0.0
2017-Sep-17 18:00N 34°42' E 135°13'0 0.0
2017-Sep-17 17:30N 34°42' E 135°13'0 0.0
2017-Sep-17 17:00N 34°42' E 135°13'0 0.0
2017-Sep-17 16:30N 34°42' E 135°13'0 0.0
2017-Sep-17 16:00N 34°42' E 135°13'0 0.0
2017-Sep-17 15:30N 34°42' E 135°13'0 0.0
2017-Sep-17 15:00N 34°42' E 135°13'0 0.0
2017-Sep-17 14:30N 34°42' E 135°13'0 0.0
2017-Sep-17 14:00N 34°42' E 135°13'0 0.0
2017-Sep-17 13:30N 34°42' E 135°13'0 0.0
2017-Sep-17 13:00N 34°42' E 135°13'0 0.0
2017-Sep-17 12:30N 34°42' E 135°13'0 0.0
2017-Sep-17 12:00N 34°42' E 135°13'0 0.0
2017-Sep-17 11:30N 34°42' E 135°13'0 0.0
2017-Sep-17 11:00N 34°42' E 135°13'0 0.0
2017-Sep-17 10:30N 34°42' E 135°13'0 0.0
2017-Sep-17 10:00N 34°42' E 135°13'0 0.0
2017-Sep-17 09:30N 34°42' E 135°13'0 0.0
2017-Sep-17 09:00N 34°42' E 135°13'0 0.0
2017-Sep-17 08:30N 34°42' E 135°13'0 0.0
2017-Sep-17 08:00N 34°42' E 135°13'0 0.0
2017-Sep-17 07:30N 34°42' E 135°13'0 0.0
2017-Sep-17 07:00N 34°42' E 135°13'0 0.0
2017-Sep-17 06:30N 34°42' E 135°13'0 0.0
2017-Sep-17 06:00N 34°42' E 135°13'0 0.0
2017-Sep-17 05:30N 34°42' E 135°13'0 0.0
2017-Sep-17 05:00N 34°42' E 135°13'0 0.0
2017-Sep-17 04:30N 34°42' E 135°13'0 0.0
2017-Sep-17 04:00N 34°42' E 135°13'0 0.0
2017-Sep-17 03:30N 34°42' E 135°13'0 0.0
2017-Sep-17 03:00N 34°42' E 135°13'0 0.0
2017-Sep-17 02:30N 34°42' E 135°13'0 0.0
2017-Sep-17 02:00N 34°42' E 135°13'0 0.0
2017-Sep-17 01:30N 34°42' E 135°13'0 0.0
2017-Sep-17 01:00N 34°42' E 135°13'0 0.0
2017-Sep-17 00:30N 34°42' E 135°13'0 0.0
2017-Sep-17 00:00N 34°42' E 135°13'1 2.3
2017-Sep-16 23:30N 34°41' E 135°12'  
2017-Sep-13 23:21N 34°41' E 135°12'1 2.3
2017-Sep-13 23:00N 34°41' E 135°13'2 4.1
2017-Sep-13 22:30N 34°41' E 135°15'2 4.0
2017-Sep-13 22:00N 34°39' E 135°16'1 1.8
2017-Sep-13 21:30N 34°39' E 135°15'0 0.0
2017-Sep-13 21:00N 34°39' E 135°15'0 0.0
2017-Sep-13 20:30N 34°39' E 135°15'0 0.0
2017-Sep-13 20:00N 34°39' E 135°15'0 0.0
2017-Sep-13 19:30N 34°39' E 135°15'0 0.0
2017-Sep-13 19:00N 34°39' E 135°15'0 0.0
2017-Sep-13 18:30N 34°39' E 135°15'0 0.0
2017-Sep-13 18:00N 34°39' E 135°15'0 0.0
2017-Sep-13 17:30N 34°39' E 135°15'1 2.1
2017-Sep-13 17:00N 34°40' E 135°14'0 0.4
2017-Sep-13 16:30N 34°40' E 135°14'2 3.6
2017-Sep-13 15:59N 34°41' E 135°17'0 0.0
2017-Sep-13 15:30N 34°41' E 135°17'0 0.0
2017-Sep-13 15:00N 34°41' E 135°17'0 0.0
2017-Sep-13 14:30N 34°41' E 135°17'0 0.0
2017-Sep-13 14:00N 34°41' E 135°17'0 0.0
2017-Sep-13 13:30N 34°41' E 135°17'0 0.0
2017-Sep-13 13:00N 34°41' E 135°17'0 0.0
2017-Sep-13 12:30N 34°41' E 135°17'0 0.0
2017-Sep-13 12:00N 34°41' E 135°17'0 0.0
2017-Sep-13 11:30N 34°41' E 135°17'1 1.5
2017-Sep-13 11:00N 34°41' E 135°17'0 0.6
2017-Sep-13 10:30N 34°41' E 135°17'3 6.3
2017-Sep-13 10:00N 34°40' E 135°13'0 0.1
2017-Sep-13 09:30N 34°40' E 135°13'1 2.9
2017-Sep-13 09:00N 34°39' E 135°15'0 0.4
2017-Sep-13 08:30N 34°39' E 135°15'1 2.6
2017-Sep-13 08:00N 34°39' E 135°16'2 4.1
2017-Sep-13 07:30N 34°41' E 135°15'1 1.6
2017-Sep-13 07:00N 34°41' E 135°14'0 0.1
2017-Sep-13 06:30N 34°41' E 135°14'0 0.0
2017-Sep-13 06:00N 34°41' E 135°14'0 0.0
2017-Sep-13 05:30N 34°41' E 135°14'0 0.1
2017-Sep-13 05:00N 34°41' E 135°14'0 0.1
2017-Sep-13 04:30N 34°41' E 135°14'0 0.0
2017-Sep-13 04:00N 34°41' E 135°14'0 0.0
2017-Sep-13 03:30N 34°41' E 135°14'0 0.0
2017-Sep-13 03:00N 34°41' E 135°14'1 1.6
2017-Sep-13 02:30N 34°42' E 135°15'0 0.1
2017-Sep-13 02:00N 34°42' E 135°15'1 2.7
2017-Sep-13 01:30N 34°41' E 135°15'2 3.1
2017-Sep-13 01:00N 34°39' E 135°15'0 0.8
2017-Sep-13 00:30N 34°39' E 135°15'0 0.0
2017-Sep-13 00:00N 34°39' E 135°15'3 5.4
2017-Sep-12 23:30N 34°41' E 135°13'4 7.5
2017-Sep-12 23:00N 34°41' E 135°17'0 0.6
2017-Sep-12 22:30N 34°41' E 135°18'1 1.5
2017-Sep-12 22:00N 34°40' E 135°18'4 7.2
2017-Sep-12 21:30N 34°41' E 135°14'1 2.7
2017-Sep-12 21:00N 34°41' E 135°12'0 0.0
2017-Sep-12 06:55N 34°41' E 135°12'0 0.0
2017-Sep-12 06:30N 34°41' E 135°12'0 0.0
2017-Sep-12 06:01N 34°41' E 135°12'0 0.0
2017-Sep-12 05:31N 34°41' E 135°12'0 0.0
2017-Sep-12 05:00N 34°41' E 135°12'0 0.0
2017-Sep-12 04:30N 34°41' E 135°12'0 0.0
2017-Sep-12 04:00N 34°41' E 135°12'0 0.0
2017-Sep-12 03:30N 34°41' E 135°12'0 0.0
2017-Sep-12 03:00N 34°41' E 135°12'0 0.0
2017-Sep-12 02:31N 34°41' E 135°12'0 0.0
2017-Sep-12 02:00N 34°41' E 135°12'0 0.0
2017-Sep-12 01:31N 34°41' E 135°12'0 0.0
2017-Sep-12 01:00N 34°41' E 135°12'0 0.0
2017-Sep-12 00:30N 34°41' E 135°12'1 2.2
2017-Sep-12 00:00N 34°40' E 135°13'1 2.4
2017-Sep-11 23:30N 34°39' E 135°15'1 1.1
2017-Sep-11 23:00N 34°39' E 135°15'1 2.0
2017-Sep-11 22:30N 34°39' E 135°16'2 3.4
2017-Sep-11 22:01N 34°40' E 135°15'2 4.5
2017-Sep-11 21:30N 34°41' E 135°12'0 0.0
2017-Sep-11 21:01N 34°41' E 135°12'  

Dump ship's entire track history